Flight Track Log - Related Links

Times and Time Zones

All times are in EDT time to prevent confusion due to time zone crossing. See the N989RF flight status page for this flight to view local times or setup timezone preferences in your user account.

Time Position Orientation Groundspeed Altitude Reporting Facility
EDT Latitude Longitude Course Direction KTS MPH feet Rate Location/Type
Sun 08:24:00 PM 32.9047 -80.0059 357° North  Level FlightAware Approximate
Sun 08:25:00 PM 32.9456 -80.0086 357° North  Level FlightAware Approximate
Sun 08:26:00 PM 32.9865 -80.0113 357° North  Level FlightAware Approximate
Sun 08:27:00 PM 33.0274 -80.0140 357° North  Level FlightAware Approximate
Sun 08:28:00 PM 33.0683 -80.0167 North  Level FlightAware Approximate
Sun 08:29:00 PM 33.1091 -80.0185 350° North  Level FlightAware Approximate
Sun 08:30:00 PM 33.1495 -80.0266 350° North  Level FlightAware Approximate
Sun 08:31:00 PM 33.1833 -80.0333 350° North  Level FlightAware Approximate
Sun 08:32:00 PM 33.1855 -80.0362 350° North  Level Estimated
Sun 08:33:00 PM 33.1833 -80.0333 350° North  Level FlightAware Approximate
Sun 08:34:00 PM 33.1855 -80.0362 350° North  Level Estimated
Sun 08:35:00 PM 33.1833 -80.0333 350° North  Level FlightAware Approximate
Sun 08:36:00 PM 33.1855 -80.0362 350° North  Level Estimated
Sun 08:37:00 PM 33.1833 -80.0333 350° North  Level FlightAware Approximate
Sun 08:38:00 PM 33.1855 -80.0362 350° North  Level Estimated
Sun 08:39:00 PM 33.1833 -80.0333 350° North  Level FlightAware Approximate
Sun 08:40:00 PM 33.1855 -80.0362 350° North  Level Estimated
Sun 08:41:00 PM 33.1833 -80.0333 350° North  Level FlightAware Approximate
Sun 08:42:00 PM 33.1855 -80.0362 350° North  Level Estimated
Sun 08:43:00 PM 33.1833 -80.0333 350° North  Level FlightAware Approximate
Sun 08:44:00 PM 33.1855 -80.0362 350° North  Level Estimated
Sun 08:45:00 PM 33.1833 -80.0333 350° North  Level FlightAware Approximate
Sun 08:46:00 PM 33.1855 -80.0362 350° North  Level Estimated
Sun 08:47:00 PM 33.1833 -80.0333 350° North  Level FlightAware Approximate

Login

Don't have an account? Register now (free) for customized features, flight alerts, and more!